createdAt,value
2019-02-05T00:02:21.389Z,5.12
2019-02-05T00:04:53.385Z,5.12
2019-02-05T00:07:25.356Z,5.12
2019-02-05T00:09:57.308Z,5.13
2019-02-05T00:12:28.979Z,5.13
2019-02-05T00:15:00.664Z,5.14
2019-02-05T00:17:32.322Z,5.16
2019-02-05T00:20:04.371Z,5.17
2019-02-05T00:22:36.037Z,5.15
2019-02-05T00:25:08.168Z,5.14
2019-02-05T00:27:39.838Z,5.15
2019-02-05T00:30:16.626Z,5.16
2019-02-05T00:32:48.946Z,5.17
2019-02-05T00:35:20.608Z,5.16
2019-02-05T00:37:52.301Z,5.18
2019-02-05T00:40:24.132Z,5.17
2019-02-05T00:42:55.828Z,5.17
2019-02-05T00:45:28.156Z,5.16
2019-02-05T00:47:59.852Z,5.17
2019-02-05T00:50:31.527Z,5.17
2019-02-05T00:53:03.467Z,5.17
2019-02-05T00:55:35.143Z,5.15
2019-02-05T00:58:06.820Z,5.15
2019-02-05T01:00:38.489Z,5.16
2019-02-05T01:03:10.173Z,5.16
2019-02-05T01:05:41.852Z,5.16
2019-02-05T01:08:13.511Z,5.15
2019-02-05T01:10:45.524Z,5.14
2019-02-05T01:13:17.211Z,5.14
2019-02-05T01:15:48.873Z,5.11
2019-02-05T01:18:20.551Z,5.10
2019-02-05T01:20:52.229Z,5.08
2019-02-05T01:23:23.914Z,5.06
2019-02-05T01:25:55.912Z,5.05
2019-02-05T01:28:27.611Z,5.01
2019-02-05T01:30:59.279Z,4.99
2019-02-05T01:33:30.968Z,4.98
2019-02-05T01:36:02.646Z,4.95
2019-02-05T01:38:34.407Z,4.94
2019-02-05T01:41:06.146Z,4.90
2019-02-05T01:43:37.827Z,4.90
2019-02-05T01:46:09.960Z,4.89
2019-02-05T01:48:42.024Z,4.88
2019-02-05T01:51:13.761Z,4.88
2019-02-05T01:53:45.597Z,4.87
2019-02-05T01:56:17.454Z,4.84
2019-02-05T01:58:49.921Z,4.82
2019-02-05T02:01:21.628Z,4.81
2019-02-05T02:03:53.296Z,4.78
2019-02-05T02:06:24.971Z,4.75
2019-02-05T02:08:56.682Z,4.74
2019-02-05T02:11:28.726Z,4.73
2019-02-05T02:14:00.426Z,4.71
2019-02-05T02:16:35.017Z,4.68
2019-02-05T02:19:06.729Z,4.68
2019-02-05T02:21:38.398Z,4.68
2019-02-05T02:24:10.455Z,4.69
2019-02-05T02:26:51.768Z,4.67
2019-02-05T02:29:15.516Z,4.68
2019-02-05T02:31:47.182Z,4.65
2019-02-05T02:34:18.870Z,4.66
2019-02-05T02:36:50.540Z,4.65
2019-02-05T02:39:22.209Z,4.66
2019-02-05T02:41:54.688Z,4.65
2019-02-05T02:44:26.414Z,4.65
2019-02-05T02:46:58.116Z,4.63
2019-02-05T02:49:29.816Z,4.64
2019-02-05T02:52:01.484Z,4.65
2019-02-05T02:54:33.218Z,4.66
2019-02-05T02:57:05.171Z,4.67
2019-02-05T02:59:37.259Z,4.67
2019-02-05T03:02:08.952Z,4.69
2019-02-05T03:04:40.633Z,4.69
2019-02-05T03:07:12.644Z,4.69
2019-02-05T03:09:44.321Z,4.70
2019-02-05T03:12:16.002Z,4.72
2019-02-05T03:14:47.871Z,4.72
2019-02-05T03:17:19.550Z,4.72
2019-02-05T03:19:51.328Z,4.73
2019-02-05T03:22:23.013Z,4.72
2019-02-05T03:24:54.699Z,4.73
2019-02-05T03:27:26.379Z,4.73
2019-02-05T03:29:59.189Z,4.74
2019-02-05T03:32:31.076Z,4.74
2019-02-05T03:35:02.843Z,4.74
2019-02-05T03:37:34.503Z,4.74
2019-02-05T03:40:31.652Z,4.75
2019-02-05T03:43:03.325Z,4.74
2019-02-05T03:45:35.018Z,4.77
2019-02-05T03:48:07.259Z,4.78
2019-02-05T03:50:46.577Z,4.77
2019-02-05T03:53:50.321Z,4.79
2019-02-05T03:56:54.157Z,4.79
2019-02-05T03:59:53.289Z,4.76
2019-02-05T04:02:53.823Z,4.73
2019-02-05T04:05:50.227Z,4.71
2019-02-05T04:08:47.235Z,4.72
2019-02-05T04:11:43.083Z,4.73
2019-02-05T04:14:22.474Z,4.72
2019-02-05T04:17:10.361Z,4.70
2019-02-05T04:20:09.793Z,4.70
2019-02-05T04:22:58.547Z,4.67
2019-02-05T04:25:53.074Z,4.66
2019-02-05T04:28:48.954Z,4.65
2019-02-05T04:31:33.920Z,4.65
2019-02-05T04:34:25.748Z,4.62
2019-02-05T04:37:26.333Z,4.62
2019-02-05T04:40:23.643Z,4.60
2019-02-05T04:43:18.289Z,4.56
2019-02-05T04:46:00.390Z,4.53
2019-02-05T04:48:45.677Z,4.51
2019-02-05T04:51:34.756Z,4.49
2019-02-05T04:54:23.163Z,4.46
2019-02-05T04:57:18.035Z,4.43
2019-02-05T05:00:41.369Z,4.43
2019-02-05T05:03:39.520Z,4.42
2019-02-05T05:06:46.224Z,4.42
2019-02-05T05:09:31.732Z,4.43
2019-02-05T05:12:03.818Z,4.43
2019-02-05T05:14:35.756Z,4.44
2019-02-05T05:17:07.815Z,4.48
2019-02-05T05:19:39.854Z,4.49
2019-02-05T05:22:11.623Z,4.49
2019-02-05T05:24:43.298Z,4.49
2019-02-05T05:27:16.589Z,4.47
2019-02-05T05:29:48.989Z,4.47
2019-02-05T05:32:21.128Z,4.45
2019-02-05T05:34:53.273Z,4.46
2019-02-05T05:37:24.956Z,4.48
2019-02-05T05:39:56.632Z,4.49
2019-02-05T05:42:29.986Z,4.53
2019-02-05T05:45:01.926Z,4.55
2019-02-05T05:47:33.972Z,4.59
2019-02-05T05:50:11.256Z,4.63
2019-02-05T05:52:43.209Z,4.66
2019-02-05T05:55:15.717Z,4.68
2019-02-05T05:57:47.544Z,4.71
2019-02-05T06:00:20.318Z,4.74
2019-02-05T06:02:52.010Z,4.78
2019-02-05T06:05:23.675Z,4.80
2019-02-05T06:07:55.929Z,4.83
2019-02-05T06:10:27.627Z,4.86
2019-02-05T06:12:59.329Z,4.86
2019-02-05T06:15:30.991Z,4.88
2019-02-05T06:18:02.670Z,4.90
2019-02-05T06:20:36.061Z,4.93
2019-02-05T06:23:07.762Z,4.95
2019-02-05T06:25:39.437Z,4.97
2019-02-05T06:28:11.112Z,4.98
2019-02-05T06:30:42.786Z,4.97
2019-02-05T06:33:14.528Z,4.98
2019-02-05T06:35:46.270Z,4.99
2019-02-05T06:38:17.944Z,5.00
2019-02-05T06:40:49.677Z,4.99
2019-02-05T06:43:21.340Z,5.01
2019-02-05T06:45:53.040Z,5.03
2019-02-05T06:48:24.700Z,5.05
2019-02-05T06:50:56.973Z,5.05
2019-02-05T06:53:28.854Z,5.06
2019-02-05T06:56:00.498Z,5.08
2019-02-05T06:58:32.434Z,5.09
2019-02-05T07:01:04.183Z,5.11
2019-02-05T07:03:35.889Z,5.13
2019-02-05T07:06:07.592Z,5.14
2019-02-05T07:08:42.355Z,5.15
2019-02-05T07:11:12.669Z,5.18
2019-02-05T07:13:44.753Z,5.18
2019-02-05T07:16:16.424Z,5.20
2019-02-05T07:18:48.129Z,5.21
2019-02-05T07:21:20.100Z,5.21
2019-02-05T07:23:51.763Z,5.23
2019-02-05T07:26:23.943Z,5.26
2019-02-05T07:28:58.883Z,5.28
2019-02-05T07:31:29.012Z,5.30
2019-02-05T07:34:00.724Z,5.31
2019-02-05T07:36:32.439Z,5.33
2019-02-05T07:39:06.839Z,5.33
2019-02-05T07:41:38.907Z,5.33
2019-02-05T07:44:10.703Z,5.32
2019-02-05T07:46:42.464Z,5.33
2019-02-05T07:49:14.174Z,5.35
2019-02-05T07:51:45.839Z,5.36
2019-02-05T07:54:18.334Z,5.36
2019-02-05T07:56:50.016Z,5.37
2019-02-05T07:59:21.709Z,5.38
2019-02-05T08:01:53.719Z,5.38
2019-02-05T08:04:25.960Z,5.39
2019-02-05T08:06:57.679Z,5.40
2019-02-05T08:09:29.350Z,5.38
2019-02-05T08:12:01.065Z,5.39
2019-02-05T08:14:33.133Z,5.41
2019-02-05T08:17:04.861Z,5.43
2019-02-05T08:19:36.957Z,5.44
2019-02-05T08:22:09.666Z,5.45
2019-02-05T08:24:41.796Z,5.43
2019-02-05T08:27:13.500Z,5.43
2019-02-05T08:29:46.887Z,5.42
2019-02-05T08:32:18.552Z,5.41
2019-02-05T08:34:50.274Z,5.41
2019-02-05T08:37:23.763Z,5.41
2019-02-05T08:39:55.499Z,5.41
2019-02-05T08:42:27.478Z,5.43
2019-02-05T08:44:59.525Z,5.44
2019-02-05T08:47:31.950Z,5.49
2019-02-05T08:50:07.920Z,5.51
2019-02-05T08:52:39.622Z,5.56
2019-02-05T08:55:18.026Z,5.61
2019-02-05T08:57:53.806Z,5.66
2019-02-05T09:00:34.244Z,5.70
2019-02-05T09:03:07.163Z,5.72
2019-02-05T09:05:38.832Z,5.72
2019-02-05T09:08:10.879Z,5.73
2019-02-05T09:10:43.297Z,5.75
2019-02-05T09:13:15.472Z,5.77
2019-02-05T09:15:47.197Z,5.79
2019-02-05T09:18:18.894Z,5.81
2019-02-05T09:20:50.587Z,5.81
2019-02-05T09:23:22.317Z,5.85
2019-02-05T09:25:53.967Z,5.88
2019-02-05T09:28:25.750Z,5.91
2019-02-05T09:30:57.654Z,5.93
2019-02-05T09:33:29.664Z,5.95
2019-02-05T09:36:01.523Z,5.97
2019-02-05T09:38:33.586Z,6.01
2019-02-05T09:41:05.305Z,6.03
2019-02-05T09:43:37.461Z,6.03
2019-02-05T09:46:09.129Z,6.06
2019-02-05T09:48:42.669Z,6.05
2019-02-05T09:51:14.356Z,6.05
2019-02-05T09:53:46.543Z,6.05
2019-02-05T09:56:18.265Z,6.04
2019-02-05T09:58:49.971Z,6.06
2019-02-05T10:01:21.640Z,6.08
2019-02-05T10:03:53.407Z,6.09
2019-02-05T10:06:25.297Z,6.11
2019-02-05T10:08:56.988Z,6.15
2019-02-05T10:11:28.716Z,6.17
2019-02-05T10:14:00.450Z,6.19
2019-02-05T10:16:32.199Z,6.19
2019-02-05T10:19:03.921Z,6.23
2019-02-05T10:21:36.094Z,6.24
2019-02-05T10:24:07.806Z,6.27
2019-02-05T10:26:40.238Z,6.30
2019-02-05T10:29:12.045Z,6.35
2019-02-05T10:31:43.675Z,6.38
2019-02-05T10:34:15.708Z,6.40
2019-02-05T10:36:47.470Z,6.41
2019-02-05T10:39:19.250Z,6.43
2019-02-05T10:41:50.952Z,6.45
2019-02-05T10:44:22.634Z,6.47
2019-02-05T10:46:54.871Z,6.50
2019-02-05T10:49:26.750Z,6.54
2019-02-05T10:51:58.475Z,6.56
2019-02-05T10:54:30.186Z,6.60
2019-02-05T10:57:02.258Z,6.57
2019-02-05T10:59:34.233Z,6.58
2019-02-05T11:02:06.215Z,6.57
2019-02-05T11:04:37.919Z,6.56
2019-02-05T11:07:09.619Z,6.56
2019-02-05T11:09:41.394Z,6.58
2019-02-05T11:12:13.104Z,6.59
2019-02-05T11:14:45.273Z,6.62
2019-02-05T11:17:16.964Z,6.65
2019-02-05T11:19:48.624Z,6.69
2019-02-05T11:22:20.341Z,6.72
2019-02-05T11:24:52.111Z,6.75
2019-02-05T11:27:24.055Z,6.76
2019-02-05T11:29:55.735Z,6.78
2019-02-05T11:32:28.128Z,6.79
2019-02-05T11:35:00.345Z,6.80
2019-02-05T11:37:32.014Z,6.84
2019-02-05T11:40:04.307Z,6.87
2019-02-05T11:42:35.957Z,6.88
2019-02-05T11:45:12.786Z,6.90
2019-02-05T11:47:44.665Z,6.92
2019-02-05T11:50:18.004Z,6.93
2019-02-05T11:52:49.775Z,6.94
2019-02-05T11:55:25.811Z,6.94
2019-02-05T11:57:57.452Z,6.94
2019-02-05T12:00:32.597Z,6.93
2019-02-05T12:03:04.374Z,6.92
2019-02-05T12:10:42.025Z,6.91
2019-02-05T12:13:13.740Z,6.87
2019-02-05T12:15:45.989Z,6.87
2019-02-05T12:18:17.707Z,6.88
2019-02-05T12:20:49.832Z,6.62
2019-02-05T12:23:21.792Z,6.90
2019-02-05T12:25:53.730Z,6.90
2019-02-05T12:28:25.401Z,6.92
2019-02-05T12:30:57.052Z,6.94
2019-02-05T12:33:29.124Z,7.00
2019-02-05T12:36:00.817Z,7.03
2019-02-05T12:38:32.736Z,7.10
2019-02-05T12:41:04.553Z,7.17
2019-02-05T12:43:36.450Z,7.21
2019-02-05T12:46:08.267Z,7.21
2019-02-05T12:48:40.839Z,7.20
2019-02-05T12:51:12.555Z,7.23
2019-02-05T12:53:44.410Z,7.24
2019-02-05T12:56:16.099Z,7.28
2019-02-05T12:58:47.780Z,7.30
2019-02-05T13:01:19.471Z,7.30
2019-02-05T13:03:51.146Z,7.31
2019-02-05T13:06:22.849Z,7.34
2019-02-05T13:08:54.520Z,7.36
2019-02-05T13:11:26.258Z,7.38
2019-02-05T13:13:57.903Z,7.40
2019-02-05T13:16:29.589Z,7.42
2019-02-05T13:19:01.306Z,7.44
2019-02-05T13:21:33.263Z,7.44
2019-02-05T13:24:04.957Z,7.46
2019-02-05T13:26:37.032Z,7.45
2019-02-05T13:29:08.661Z,7.43
2019-02-05T13:31:40.428Z,7.40
2019-02-05T13:34:12.220Z,7.41
2019-02-05T13:36:44.240Z,7.43
2019-02-05T13:39:15.941Z,7.46
2019-02-05T13:41:47.650Z,7.47
2019-02-05T13:44:19.672Z,7.48
2019-02-05T13:46:51.308Z,7.47
2019-02-05T13:49:23.431Z,7.46
2019-02-05T13:51:55.427Z,7.44
2019-02-05T13:54:27.063Z,7.42
2019-02-05T13:56:58.822Z,7.41
2019-02-05T13:59:30.488Z,7.39
2019-02-05T14:02:02.796Z,7.39
2019-02-05T14:04:35.023Z,7.40
2019-02-05T14:07:06.727Z,7.40
2019-02-05T14:09:38.409Z,7.43
2019-02-05T14:12:10.094Z,7.43
2019-02-05T14:14:42.108Z,7.43
2019-02-05T14:17:13.815Z,7.43
2019-02-05T14:19:45.546Z,7.42
2019-02-05T14:22:17.274Z,7.41
2019-02-05T14:24:48.908Z,7.41
2019-02-05T14:27:21.182Z,7.38
2019-02-05T14:29:52.853Z,7.36
2019-02-05T14:32:24.576Z,7.32
2019-02-05T14:34:56.257Z,7.29
2019-02-05T14:37:27.941Z,7.27
2019-02-05T14:40:00.389Z,7.24
2019-02-05T14:42:32.064Z,7.21
2019-02-05T14:45:04.630Z,7.21
2019-02-05T14:47:36.366Z,7.19
2019-02-05T14:50:22.518Z,7.17
2019-02-05T14:53:09.767Z,6.84
2019-02-05T14:55:41.503Z,7.13
2019-02-05T14:58:13.754Z,7.13
2019-02-05T15:00:45.436Z,7.13
2019-02-05T15:03:17.426Z,7.14
2019-02-05T15:05:49.131Z,7.12
2019-02-05T15:08:20.965Z,7.12
2019-02-05T15:10:52.649Z,7.10
2019-02-05T15:13:24.286Z,7.10
2019-02-05T15:15:55.978Z,7.09
2019-02-05T15:18:27.667Z,7.09
2019-02-05T15:20:59.386Z,7.09
2019-02-05T15:23:31.420Z,7.08
2019-02-05T15:26:03.160Z,7.06
2019-02-05T15:28:35.241Z,7.08
2019-02-05T15:31:06.982Z,7.07
2019-02-05T15:33:46.180Z,7.05
2019-02-05T15:36:19.491Z,7.04
2019-02-05T15:38:51.632Z,7.05
2019-02-05T15:41:23.313Z,7.04
2019-02-05T15:43:55.034Z,7.03
2019-02-05T15:46:27.363Z,7.01
2019-02-05T15:48:59.010Z,7.02
2019-02-05T15:51:30.668Z,7.02
2019-02-05T15:54:02.638Z,7.02
2019-02-05T15:56:34.393Z,7.02
2019-02-05T15:59:06.148Z,7.02
2019-02-05T16:01:38.013Z,7.02
2019-02-05T16:04:10.500Z,7.01
2019-02-05T16:06:44.192Z,7.02
2019-02-05T16:09:16.169Z,7.01
2019-02-05T16:11:47.857Z,7.00
2019-02-05T16:14:19.973Z,6.99
2019-02-05T16:16:51.947Z,6.99
2019-02-05T16:19:24.139Z,6.99
2019-02-05T16:21:55.791Z,7.00
2019-02-05T16:24:28.051Z,6.98
2019-02-05T16:26:59.684Z,6.99
2019-02-05T16:29:31.430Z,7.00
2019-02-05T16:32:03.147Z,7.00
2019-02-05T16:34:34.783Z,6.99
2019-02-05T16:37:06.460Z,6.97
2019-02-05T16:39:38.138Z,6.94
2019-02-05T16:42:10.175Z,6.93
2019-02-05T16:44:42.118Z,6.91
2019-02-05T16:47:13.955Z,6.89
2019-02-05T16:49:46.200Z,6.87
2019-02-05T16:52:17.890Z,6.83
2019-02-05T16:54:50.099Z,6.81
2019-02-05T16:57:21.799Z,6.77
2019-02-05T16:59:53.481Z,6.75
2019-02-05T17:02:28.787Z,6.72
2019-02-05T17:04:59.402Z,6.68
2019-02-05T17:07:31.353Z,6.64
2019-02-05T17:10:03.257Z,6.61
2019-02-05T17:12:34.942Z,6.61
2019-02-05T17:15:14.226Z,6.60
2019-02-05T17:17:45.970Z,6.61
2019-02-05T17:20:32.487Z,6.63
2019-02-05T17:23:04.392Z,6.63
2019-02-05T17:25:36.394Z,6.65
2019-02-05T17:28:08.252Z,6.67
2019-02-05T17:30:41.473Z,6.68
2019-02-05T17:33:13.142Z,6.69
2019-02-05T17:35:44.955Z,6.71
2019-02-05T17:38:16.660Z,6.72
2019-02-05T17:40:48.301Z,6.73
2019-02-05T17:43:19.984Z,6.72
2019-02-05T17:45:51.659Z,6.72
2019-02-05T17:48:23.303Z,6.74
2019-02-05T17:50:55.026Z,6.71
2019-02-05T17:53:26.791Z,6.68
2019-02-05T17:55:58.509Z,6.67
2019-02-05T17:58:30.187Z,6.64
2019-02-05T18:01:03.470Z,6.63
2019-02-05T18:03:35.263Z,6.61
2019-02-05T18:06:06.979Z,6.60
2019-02-05T18:08:38.647Z,6.60
2019-02-05T18:11:10.286Z,6.59
2019-02-05T18:13:42.683Z,6.60
2019-02-05T18:16:14.675Z,6.60
2019-02-05T18:18:46.717Z,6.60
2019-02-05T18:21:18.390Z,6.60
2019-02-05T18:23:50.029Z,6.60
2019-02-05T18:26:22.157Z,6.59
2019-02-05T18:28:53.877Z,6.60
2019-02-05T18:31:25.545Z,6.62
2019-02-05T18:33:57.189Z,6.63
2019-02-05T18:36:28.839Z,6.62
2019-02-05T18:39:00.925Z,6.63
2019-02-05T18:41:32.832Z,6.65
2019-02-05T18:44:04.899Z,6.65
2019-02-05T18:46:36.580Z,6.66
2019-02-05T18:49:08.229Z,6.67
2019-02-05T18:51:40.549Z,6.67
2019-02-05T18:54:12.206Z,6.68
2019-02-05T18:56:44.060Z,6.69
2019-02-05T18:59:16.101Z,6.71
2019-02-05T19:01:47.785Z,6.72
2019-02-05T19:04:19.706Z,6.72
2019-02-05T19:06:51.359Z,6.72
2019-02-05T19:09:23.048Z,6.72
2019-02-05T19:11:54.680Z,6.73
2019-02-05T19:14:26.437Z,6.72
2019-02-05T19:16:58.629Z,6.73
2019-02-05T19:19:30.360Z,6.72
2019-02-05T19:22:02.314Z,6.72
2019-02-05T19:24:35.599Z,6.74
2019-02-05T19:27:07.715Z,6.73
2019-02-05T19:29:39.839Z,6.72
2019-02-05T19:32:12.952Z,6.73
2019-02-05T19:34:44.591Z,6.72
2019-02-05T19:37:16.264Z,6.72
2019-02-05T19:39:47.899Z,6.72
2019-02-05T19:42:19.744Z,6.70
2019-02-05T19:44:53.008Z,6.67
2019-02-05T19:47:24.980Z,6.67
2019-02-05T19:49:56.732Z,6.67
2019-02-05T19:52:28.875Z,6.66
2019-02-05T19:55:01.059Z,6.65
2019-02-05T19:57:32.679Z,6.63
2019-02-05T20:00:12.417Z,6.61
2019-02-05T20:02:44.469Z,6.62
2019-02-05T20:05:18.320Z,6.62
2019-02-05T20:07:50.812Z,6.61
2019-02-05T20:10:22.493Z,6.62
2019-02-05T20:12:54.149Z,6.63
2019-02-05T20:15:26.138Z,6.61
2019-02-05T20:17:57.785Z,6.61
2019-02-05T20:20:31.626Z,6.59
2019-02-05T20:23:03.994Z,6.60
2019-02-05T20:25:35.647Z,6.59
2019-02-05T20:28:08.189Z,6.59
2019-02-05T20:30:39.876Z,6.59
2019-02-05T20:33:11.579Z,6.59
2019-02-05T20:35:43.228Z,6.57
2019-02-05T20:38:14.900Z,6.56
2019-02-05T20:40:46.622Z,6.54
2019-02-05T20:43:18.420Z,6.55
2019-02-05T20:45:50.132Z,6.53
2019-02-05T20:48:21.775Z,6.51
2019-02-05T20:50:53.434Z,6.51
2019-02-05T20:53:25.507Z,6.49
2019-02-05T20:55:57.399Z,6.46
2019-02-05T20:58:29.145Z,6.43
2019-02-05T21:01:00.826Z,6.40
2019-02-05T21:03:32.528Z,6.36
2019-02-05T21:06:04.212Z,6.36
2019-02-05T21:08:35.960Z,6.34
2019-02-05T21:11:08.127Z,6.32
2019-02-05T21:13:39.847Z,6.31
2019-02-05T21:16:11.601Z,6.31
2019-02-05T21:18:43.243Z,6.29
2019-02-05T21:21:14.926Z,6.28
2019-02-05T21:23:46.914Z,6.26
2019-02-05T21:26:18.675Z,6.25
2019-02-05T21:28:50.625Z,6.25
2019-02-05T21:31:22.272Z,6.23
2019-02-05T21:33:53.958Z,6.23
2019-02-05T21:36:25.606Z,6.23
2019-02-05T21:38:57.239Z,6.21
2019-02-05T21:41:29.303Z,6.20
2019-02-05T21:44:00.940Z,6.18
2019-02-05T21:46:32.795Z,6.14
2019-02-05T21:49:04.847Z,6.15
2019-02-05T21:51:41.591Z,6.12
2019-02-05T21:54:09.943Z,6.10
2019-02-05T21:56:41.611Z,6.09
2019-02-05T21:59:13.316Z,6.10
2019-02-05T22:01:45.079Z,6.06
2019-02-05T22:04:26.629Z,6.03
2019-02-05T22:06:50.370Z,6.02
2019-02-05T22:09:22.508Z,6.01
2019-02-05T22:11:54.238Z,5.99
2019-02-05T22:14:26.190Z,5.96
2019-02-05T22:16:57.882Z,5.93
2019-02-05T22:19:30.071Z,5.90
2019-02-05T22:22:01.708Z,5.90
2019-02-05T22:24:33.444Z,5.92
2019-02-05T22:27:05.976Z,5.92
2019-02-05T22:29:37.628Z,5.93
2019-02-05T22:32:09.314Z,5.96
2019-02-05T22:34:41.276Z,5.98
2019-02-05T22:37:13.025Z,6.00
2019-02-05T22:39:45.088Z,6.02
2019-02-05T22:42:17.091Z,6.04
2019-02-05T22:44:48.912Z,6.05
2019-02-05T22:47:20.598Z,6.07
2019-02-05T22:49:52.293Z,6.09
2019-02-05T22:52:25.930Z,6.10
2019-02-05T22:54:57.350Z,6.11
2019-02-05T22:57:31.678Z,6.11
2019-02-05T23:00:02.434Z,6.12
2019-02-05T23:02:34.157Z,6.13
2019-02-05T23:05:19.058Z,6.13
2019-02-05T23:07:51.170Z,6.13
2019-02-05T23:10:27.750Z,6.14
2019-02-05T23:12:59.473Z,6.12
2019-02-05T23:15:31.188Z,6.11
2019-02-05T23:18:02.967Z,6.12
2019-02-05T23:20:34.977Z,6.12
2019-02-05T23:23:06.627Z,6.12
2019-02-05T23:25:38.282Z,6.13
2019-02-05T23:28:09.947Z,6.13
2019-02-05T23:30:41.891Z,6.14
2019-02-05T23:33:13.927Z,6.13
2019-02-05T23:35:45.919Z,6.15
2019-02-05T23:38:17.584Z,6.15
2019-02-05T23:40:49.333Z,6.15
2019-02-05T23:43:20.965Z,6.15
2019-02-05T23:46:01.369Z,6.15
2019-02-05T23:48:26.259Z,6.14
2019-02-05T23:50:57.917Z,6.17
2019-02-05T23:53:29.636Z,6.17
2019-02-05T23:56:01.324Z,6.19
2019-02-05T23:58:33.649Z,6.19
